Time;durP1;ratioP1;P1;durP2;ratioP2;P2;SDS_P1;SDS_P2;PMS_P1;PMS_P2;Temp;Humidity;BMP_temperature;BMP_pressure;BME280_temperature;BME280_humidity;BME280_pressure;Samples;Min_cycle;Max_cycle;Signal;HPM_P1;HPM_P2
2021/05/03 00:10:00;;;;;;;14.60;8.50;;;4.10;99.90;;;;;;20923741;28;20496;-74
2021/05/03 00:20:01;;;;;;;;;;;3.90;99.90;;;;;;20917329;28;20087;-73
2021/05/03 00:30:03;;;;;;;17.77;11.85;;;3.70;99.90;;;;;;20917565;28;19909;-73
2021/05/03 00:40:06;;;;;;;22.42;12.30;;;3.80;99.90;;;;;;20916607;28;20032;-73
2021/05/03 00:50:10;;;;;;;18.23;10.43;;;3.60;99.90;;;;;;20916163;28;20029;-73
2021/05/03 01:00:12;;;;;;;18.23;9.73;;;3.40;99.90;;;;;;20915243;28;20112;-74
2021/05/03 01:10:14;;;;;;;18.73;10.25;;;3.20;99.90;;;;;;20914343;28;20032;-74
2021/05/03 01:20:15;;;;;;;23.13;9.68;;;3.00;99.90;;;;;;20912214;28;20133;-73
2021/05/03 01:30:17;;;;;;;14.18;8.68;;;2.60;99.90;;;;;;20912882;28;20048;-73
2021/05/03 01:40:18;;;;;;;19.08;11.10;;;2.40;99.90;;;;;;20912167;28;20029;-73
2021/05/03 01:50:20;;;;;;;23.40;14.10;;;2.20;99.90;;;;;;20911415;28;20496;-73
2021/05/03 02:00:21;;;;;;;29.40;15.75;;;2.10;99.90;;;;;;20892631;28;20045;-73
2021/05/03 02:10:22;;;;;;;27.13;14.55;;;2.50;99.90;;;;;;20909665;28;20048;-73
2021/05/03 02:20:23;;;;;;;;;;;2.90;99.90;;;;;;20908294;28;20057;-74
2021/05/03 02:30:24;;;;;;;21.42;11.07;;;2.90;99.90;;;;;;20908111;28;19909;-73
2021/05/03 02:40:26;;;;;;;21.90;12.10;;;3.00;99.90;;;;;;20908031;28;20029;-75
2021/05/03 02:50:27;;;;;;;18.05;10.65;;;2.90;99.90;;;;;;20907646;28;20029;-73
2021/05/03 03:00:32;;;;;;;;;;;2.80;99.90;;;;;;20899119;28;20021;-73
2021/05/03 03:10:33;;;;;;;23.35;13.43;;;2.60;99.90;;;;;;20824380;28;19995;-74
2021/05/03 03:20:34;;;;;;;;;;;2.60;99.90;;;;;;20824338;28;20492;-74
2021/05/03 03:30:34;;;;;;;24.45;13.38;;;2.80;99.90;;;;;;20845508;28;19909;-74
2021/05/03 03:40:35;;;;;;;29.75;15.63;;;2.80;99.90;;;;;;20862650;28;20044;-74
2021/05/03 03:50:36;;;;;;;36.75;16.08;;;2.80;99.90;;;;;;20834943;28;20095;-73
2021/05/03 04:00:37;;;;;;;48.53;26.38;;;3.00;99.90;;;;;;20837419;28;20120;-73
2021/05/03 04:31:30;;;;;;;21.52;12.18;;;3.40;99.90;;;;;;20835356;28;20037;-74
2021/05/03 04:41:31;;;;;;;24.17;13.82;;;3.60;99.90;;;;;;20833458;28;20037;-74
2021/05/03 04:51:32;;;;;;;25.80;13.97;;;3.70;99.90;;;;;;20832204;28;20171;-75
2021/05/03 05:01:33;;;;;;;20.57;12.67;;;3.70;99.90;;;;;;20878994;28;20052;-73
2021/05/03 05:11:34;;;;;;;25.13;15.93;;;3.70;99.90;;;;;;20901786;28;20061;-73
2021/05/03 05:21:36;;;;;;;22.83;13.48;;;3.90;99.90;;;;;;20881998;28;20032;-73
2021/05/03 05:31:37;;;;;;;23.00;13.18;;;4.10;99.90;;;;;;20909838;28;20546;-74
2021/05/03 05:41:39;;;;;;;23.43;13.97;;;4.30;99.90;;;;;;20912271;28;20025;-74
2021/05/03 05:51:40;;;;;;;21.48;12.63;;;4.60;99.90;;;;;;20911397;28;20033;-74
2021/05/03 06:01:42;;;;;;;27.48;13.43;;;4.70;99.90;;;;;;20897250;28;20484;-75
2021/05/03 06:11:42;;;;;;;20.42;12.60;;;4.90;99.90;;;;;;20828481;28;20033;-74
2021/05/03 06:21:43;;;;;;;26.27;14.80;;;5.00;99.90;;;;;;20826728;28;20035;-74
2021/05/03 06:31:47;;;;;;;32.90;15.30;;;5.20;99.90;;;;;;20825971;28;20037;-74
2021/05/03 06:41:48;;;;;;;27.00;14.50;;;5.20;99.90;;;;;;20824091;28;20518;-73
2021/05/03 06:51:50;;;;;;;24.80;15.25;;;5.00;99.90;;;;;;20824816;28;20488;-74
2021/05/03 07:01:52;;;;;;;;;;;5.40;99.90;;;;;;20823754;28;20672;-74
2021/05/03 07:11:54;;;;;;;24.27;14.10;;;5.90;99.90;;;;;;20822990;28;19913;-75
2021/05/03 07:21:55;;;;;;;24.33;14.38;;;5.50;99.90;;;;;;20836731;28;20036;-74
2021/05/03 07:31:56;;;;;;;24.03;13.70;;;6.20;99.90;;;;;;20839839;28;20492;-74
2021/05/03 07:41:58;;;;;;;25.70;13.95;;;6.80;99.90;;;;;;20839431;28;20489;-74
2021/05/03 07:51:58;;;;;;;23.80;12.73;;;7.00;99.90;;;;;;20837074;28;20044;-75
2021/05/03 08:01:59;;;;;;;23.33;13.93;;;7.20;99.90;;;;;;20836187;28;20038;-74
2021/05/03 08:12:00;;;;;;;21.00;12.43;;;8.20;99.90;;;;;;20836813;28;20033;-74
2021/05/03 08:22:02;;;;;;;17.10;10.47;;;8.20;99.90;;;;;;20834944;28;20140;-74
2021/05/03 08:32:04;;;;;;;15.70;10.40;;;9.20;99.90;;;;;;20833964;28;20048;-74
2021/05/03 08:42:07;;;;;;;;;;;9.80;99.90;;;;;;20835330;28;20553;-74
2021/05/03 09:02:16;;;;;;;11.98;7.90;;;12.30;99.90;;;;;;20833210;28;20029;-75
2021/05/03 09:23:04;;;;;;;10.18;6.03;;;12.50;99.90;;;;;;20746199;28;20129;-74
2021/05/03 09:33:31;;;;;;;8.95;6.55;;;13.00;99.90;;;;;;20749300;28;20037;-74
2021/05/03 09:43:32;;;;;;;7.28;5.05;;;13.80;99.90;;;;;;20748320;28;20396;-74
2021/05/03 09:53:33;;;;;;;7.35;4.18;;;13.60;99.90;;;;;;20747877;28;20028;-74
2021/05/03 10:13:47;;;;;;;4.63;3.33;;;13.10;99.90;;;;;;20746193;28;20064;-75
2021/05/03 10:23:48;;;;;;;4.15;3.05;;;14.60;99.90;;;;;;20745598;28;20030;-76
2021/05/03 10:33:51;;;;;;;4.53;3.00;;;14.80;99.90;;;;;;20744999;28;20030;-74
2021/05/03 10:44:11;;;;;;;4.55;2.83;;;15.00;99.90;;;;;;20743278;28;20116;-75
2021/05/03 10:54:23;;;;;;;3.45;2.17;;;16.50;99.90;;;;;;20744850;28;20439;-75
2021/05/03 11:04:25;;;;;;;7.97;3.20;;;14.40;98.90;;;;;;20743488;28;20407;-75
2021/05/03 11:14:31;;;;;;;4.70;2.73;;;15.00;96.40;;;;;;20743303;28;20033;-75
2021/05/03 11:24:35;;;;;;;5.03;3.17;;;15.10;92.70;;;;;;20743943;28;20053;-74
2021/05/03 11:34:53;;;;;;;6.97;3.25;;;14.40;95.60;;;;;;20743513;28;20496;-74
2021/05/03 11:44:57;;;;;;;6.00;3.15;;;15.20;96.70;;;;;;20741827;28;20037;-74
2021/05/03 11:55:13;;;;;;;9.50;3.50;;;15.80;95.70;;;;;;20740123;28;20565;-74
2021/05/03 12:05:18;;;;;;;6.00;2.88;;;15.70;96.90;;;;;;20746818;28;20377;-75
2021/05/03 12:15:26;;;;;;;4.00;3.20;;;15.80;97.20;;;;;;20755099;28;20496;-76
2021/05/03 12:25:39;;;;;;;4.00;3.20;;;15.10;99.90;;;;;;20753878;28;20117;-74
2021/05/03 12:35:40;;;;;;;6.15;3.20;;;16.90;99.90;;;;;;20754042;28;20038;-76
2021/05/03 12:56:34;;;;;;;3.78;2.30;;;16.40;96.50;;;;;;20718356;28;20133;-75
2021/05/03 13:07:07;;;;;;;7.68;2.75;;;17.60;92.90;;;;;;20751443;28;20105;-76
2021/05/03 13:28:08;;;;;;;4.05;2.80;;;16.00;93.20;;;;;;20748654;28;20069;-76
2021/05/03 13:38:09;;;;;;;6.60;3.15;;;17.00;96.30;;;;;;20811223;28;20133;-76
2021/05/03 13:48:10;;;;;;;5.75;2.95;;;16.60;95.40;;;;;;20810512;28;20120;-76
2021/05/03 13:58:10;;;;;;;3.42;2.47;;;16.30;93.90;;;;;;20809230;28;20042;-75
2021/05/03 14:08:11;;;;;;;5.82;2.55;;;16.40;95.10;;;;;;20806171;28;20033;-76
2021/05/03 14:18:12;;;;;;;3.65;2.38;;;16.00;94.20;;;;;;20726047;28;20420;-76
2021/05/03 14:28:20;;;;;;;5.10;2.50;;;16.30;94.00;;;;;;20723606;28;20041;-76
2021/05/03 14:38:22;;;;;;;3.58;2.58;;;16.70;92.20;;;;;;20724089;28;20104;-76
2021/05/03 14:48:32;;;;;;;3.80;2.50;;;16.30;91.70;;;;;;20729884;28;20062;-76
2021/05/03 14:58:34;;;;;;;4.45;2.60;;;16.80;91.60;;;;;;20662507;28;20061;-75
2021/05/03 15:08:35;;;;;;;6.32;2.80;;;16.30;92.20;;;;;;20642817;28;20603;-76
2021/05/03 15:38:53;;;;;;;3.92;2.50;;;16.20;92.40;;;;;;20962924;28;20075;-80
2021/05/03 15:48:55;;;;;;;3.58;2.67;;;16.00;90.80;;;;;;20943415;28;20128;-78
2021/05/03 15:58:56;;;;;;;4.07;2.77;;;16.10;91.90;;;;;;20925907;28;20045;-79
2021/05/03 16:08:57;;;;;;;3.25;1.95;;;16.20;91.70;;;;;;20925226;28;20082;-79
2021/05/03 16:18:58;;;;;;;3.10;2.30;;;15.90;92.10;;;;;;20856330;28;20033;-78
2021/05/03 16:28:59;;;;;;;4.53;2.25;;;15.70;91.10;;;;;;20833729;28;20714;-78
2021/05/03 16:39:00;;;;;;;2.92;2.25;;;15.50;90.80;;;;;;20849408;28;20041;-79
2021/05/03 16:49:01;;;;;;;4.93;2.25;;;15.60;92.00;;;;;;20826459;28;20128;-77
2021/05/03 16:59:02;;;;;;;2.65;2.00;;;15.50;90.90;;;;;;20887799;28;20037;-76
2021/05/03 17:09:06;;;;;;;2.60;1.75;;;15.10;90.00;;;;;;20894841;28;20025;-77
2021/05/03 17:19:08;;;;;;;3.13;2.00;;;15.10;92.00;;;;;;20894152;28;20453;-78
2021/05/03 17:29:10;;;;;;;2.25;1.70;;;15.00;92.20;;;;;;20893523;28;20450;-77
2021/05/03 17:39:13;;;;;;;4.50;2.60;;;14.70;93.30;;;;;;20892350;28;20087;-76
2021/05/03 17:49:14;;;;;;;3.42;1.85;;;14.80;91.30;;;;;;20892436;28;20029;-76
2021/05/03 17:59:15;;;;;;;2.55;1.73;;;14.00;99.90;;;;;;20891195;28;20112;-77
2021/05/03 18:09:15;;;;;;;2.75;1.88;;;13.20;99.90;;;;;;20890278;28;20033;-76
2021/05/03 18:19:19;;;;;;;2.35;1.55;;;13.00;99.90;;;;;;20888574;28;20106;-76
2021/05/03 18:29:22;;;;;;;2.88;1.65;;;12.20;99.90;;;;;;20889591;28;20059;-77
2021/05/03 18:39:23;;;;;;;4.97;2.33;;;11.90;99.90;;;;;;20888785;28;20035;-78
2021/05/03 18:49:26;;;;;;;7.03;3.25;;;11.20;99.90;;;;;;20888818;28;20061;-75
2021/05/03 18:59:27;;;;;;;5.03;2.97;;;10.50;99.90;;;;;;20884618;28;20037;-76
2021/05/03 19:09:27;;;;;;;7.83;3.67;;;9.60;99.90;;;;;;20888134;28;20568;-76
2021/05/03 19:19:28;;;;;;;4.77;2.67;;;8.80;99.90;;;;;;20902076;28;20040;-76
2021/05/03 19:29:29;;;;;;;9.37;4.10;;;8.80;99.90;;;;;;20902241;28;20037;-77
2021/05/03 19:39:30;;;;;;;7.43;4.37;;;8.60;99.90;;;;;;20903084;28;20749;-78
2021/05/03 20:10:02;;;;;;;4.00;2.90;;;7.40;99.90;;;;;;20899026;28;20036;-76
2021/05/03 20:20:05;;;;;;;5.50;3.15;;;7.10;99.90;;;;;;20899845;28;20121;-77
2021/05/03 20:30:07;;;;;;;6.25;3.10;;;6.90;99.90;;;;;;20908412;28;20040;-77
2021/05/03 20:40:08;;;;;;;7.28;3.75;;;6.80;99.90;;;;;;20913970;28;20021;-77
2021/05/03 20:50:10;;;;;;;6.60;3.90;;;6.50;99.90;;;;;;20914741;28;20526;-76
2021/05/03 21:00:12;;;;;;;7.65;3.90;;;6.30;99.90;;;;;;20915036;28;20032;-75
2021/05/03 21:10:13;;;;;;;6.38;3.53;;;6.20;99.90;;;;;;20915698;28;20104;-76
2021/05/03 21:20:14;;;;;;;5.57;3.75;;;6.20;99.90;;;;;;20883436;22;20045;-75
2021/05/03 21:30:15;;;;;;;8.07;3.30;;;5.90;99.90;;;;;;20847807;28;20515;-75
2021/05/03 21:40:16;;;;;;;7.03;3.45;;;5.50;99.90;;;;;;20832715;28;20565;-75
2021/05/03 21:50:17;;;;;;;3.70;2.37;;;5.40;99.90;;;;;;20849675;28;20033;-76
2021/05/03 22:00:18;;;;;;;8.43;4.53;;;5.40;99.90;;;;;;20829450;28;20026;-76
2021/05/03 22:10:19;;;;;;;12.15;4.72;;;5.20;99.90;;;;;;20828600;28;20345;-76
2021/05/03 22:20:47;;;;;;;7.23;4.03;;;4.80;99.90;;;;;;20827351;28;20025;-76
2021/05/03 22:30:48;;;;;;;7.07;4.55;;;4.70;99.90;;;;;;20849689;28;20033;-77
2021/05/03 23:21:45;;;;;;;8.43;5.10;;;4.10;99.90;;;;;;20906882;28;20053;-75
2021/05/03 23:31:46;;;;;;;7.40;4.50;;;4.00;99.90;;;;;;20888580;28;20116;-76
2021/05/03 23:41:47;;;;;;;11.87;5.27;;;3.80;99.90;;;;;;20905978;28;20067;-76
2021/05/03 23:51:48;;;;;;;14.50;5.65;;;3.80;99.90;;;;;;20905851;28;20037;-76
